Time;durP1;ratioP1;P1;durP2;ratioP2;P2;SDS_P1;SDS_P2;PMS_P1;PMS_P2;Temp;Humidity;BMP_temperature;BMP_pressure;BME280_temperature;BME280_humidity;BME280_pressure;Samples;Min_cycle;Max_cycle;Signal;HPM_P1;HPM_P2
2023/09/26 00:00:31;;;;;;;4.45;3.60;;;14.30;77.90;;;16.16;54.61;98212.66;5020492;28;20042;-59
2023/09/26 00:02:59;;;;;;;4.43;3.38;;;14.30;78.00;;;16.12;54.84;98212.19;5012273;28;20053;-59
2023/09/26 00:05:27;;;;;;;4.82;3.92;;;14.20;78.20;;;16.09;54.82;98209.84;5020425;28;20405;-59
2023/09/26 00:07:55;;;;;;;4.25;3.70;;;14.20;78.20;;;16.05;54.63;98204.03;5023158;28;20492;-59
2023/09/26 00:10:23;;;;;;;4.35;3.67;;;14.20;78.30;;;16.03;54.94;98206.06;5023667;28;20045;-59
2023/09/26 00:12:50;;;;;;;5.82;3.60;;;14.10;78.50;;;16.01;55.11;98213.44;5021551;28;20390;-59
2023/09/26 00:15:18;;;;;;;8.02;3.67;;;14.10;78.60;;;15.98;54.73;98218.38;5019894;28;20395;-59
2023/09/26 00:17:46;;;;;;;4.50;3.40;;;14.00;78.90;;;15.93;55.19;98208.16;5021264;28;20038;-59
2023/09/26 00:20:48;;;;;;;6.15;5.32;;;14.00;79.20;;;15.91;55.29;98199.44;5005565;28;20042;-59
2023/09/26 00:23:07;;;;;;;6.20;4.00;;;14.00;79.20;;;15.90;55.19;98197.81;4998283;28;20077;-59
2023/09/26 00:25:35;;;;;;;5.43;4.22;;;14.00;79.20;;;15.89;55.02;98201.50;5019639;28;20076;-59
2023/09/26 00:28:03;;;;;;;4.97;4.00;;;14.00;79.10;;;15.89;54.95;98206.84;5011748;28;20535;-59
2023/09/26 00:30:32;;;;;;;5.38;3.95;;;14.00;79.00;;;15.87;55.16;98208.88;5002543;28;20417;-59
2023/09/26 00:32:59;;;;;;;4.78;4.20;;;14.00;78.90;;;15.84;55.18;98199.34;5005068;28;20056;-59
2023/09/26 00:35:27;;;;;;;4.72;4.03;;;14.00;78.90;;;15.83;55.15;98208.41;5022842;28;20052;-59
2023/09/26 00:37:55;;;;;;;4.82;4.07;;;14.00;78.90;;;15.80;55.17;98210.63;5003292;28;20519;-59
2023/09/26 00:40:23;;;;;;;4.88;4.13;;;13.90;78.80;;;15.78;55.42;98212.66;5017371;28;20061;-59
2023/09/26 00:42:50;;;;;;;5.30;3.60;;;13.90;78.80;;;15.76;55.28;98207.50;5003501;28;20053;-59
2023/09/26 00:45:18;;;;;;;4.60;3.45;;;13.90;78.70;;;15.73;55.15;98200.59;5022577;28;20041;-59
2023/09/26 00:47:48;;;;;;;4.88;3.65;;;13.90;78.40;;;15.72;55.03;98206.97;5021791;28;20068;-59
2023/09/26 00:50:16;;;;;;;5.68;3.53;;;13.90;78.50;;;15.69;55.20;98204.63;5002383;28;20045;-59
2023/09/26 00:52:49;;;;;;;4.32;3.92;;;13.80;78.30;;;15.68;55.32;98207.50;5008046;28;20053;-59
2023/09/26 00:55:20;;;;;;;4.32;3.35;;;13.80;78.30;;;15.66;55.38;98199.63;4988833;28;20050;-59
2023/09/26 00:57:49;;;;;;;5.78;4.25;;;13.80;78.30;;;15.64;55.29;98198.97;4987335;28;20091;-59
2023/09/26 01:00:19;;;;;;;5.30;3.70;;;13.80;78.20;;;15.64;55.31;98200.81;4990830;28;20041;-59
2023/09/26 01:02:48;;;;;;;3.47;3.15;;;13.80;78.20;;;15.61;55.26;98202.03;5003965;28;20046;-59
2023/09/26 01:05:16;;;;;;;4.90;3.85;;;13.70;78.80;;;15.58;55.56;98202.38;5019129;28;20042;-59
2023/09/26 01:07:44;;;;;;;6.25;4.25;;;13.70;79.50;;;15.59;55.47;98200.56;5019931;28;20052;-59
2023/09/26 01:10:12;;;;;;;4.72;4.10;;;13.70;79.40;;;15.55;55.63;98200.06;5004430;28;20045;-59
2023/09/26 01:12:40;;;;;;;7.35;4.47;;;13.60;79.90;;;15.53;55.81;98194.88;5022672;28;20381;-59
2023/09/26 01:15:10;;;;;;;7.38;5.68;;;13.60;80.40;;;15.51;55.93;98194.22;4994267;28;20038;-59
2023/09/26 01:17:38;;;;;;;4.93;3.97;;;13.60;80.40;;;15.51;55.66;98199.59;4989788;28;20520;-59
2023/09/26 01:20:12;;;;;;;5.75;4.25;;;13.60;80.20;;;15.48;56.00;98202.63;5011698;28;20037;-59
2023/09/26 01:22:44;;;;;;;;;;;13.60;80.90;;;15.45;55.79;98186.88;5001809;28;20053;-59
2023/09/26 01:25:15;;;;;;;5.70;4.28;;;13.50;82.10;;;15.49;55.91;98198.94;4991478;28;19929;-59
2023/09/26 01:27:43;;;;;;;8.18;4.72;;;13.60;81.00;;;15.49;56.03;98200.75;4999290;28;20034;-59
2023/09/26 01:30:12;;;;;;;5.40;4.55;;;13.70;81.10;;;15.49;56.52;98192.72;4989455;28;20038;-59
2023/09/26 01:32:40;;;;;;;5.85;4.20;;;13.70;80.70;;;15.49;56.21;98192.72;4990076;28;20053;-59
2023/09/26 01:35:08;;;;;;;12.18;5.38;;;13.70;80.20;;;15.49;56.19;98193.56;4996830;28;20045;-59
2023/09/26 01:37:35;;;;;;;5.97;4.10;;;13.70;80.10;;;15.49;56.17;98195.38;4993224;28;20056;-59
2023/09/26 01:40:09;;;;;;;5.60;4.38;;;13.70;80.10;;;15.47;56.17;98187.53;4999490;28;20046;-59
2023/09/26 01:42:39;;;;;;;5.60;4.40;;;13.70;80.00;;;15.46;56.06;98187.72;5007775;28;20044;-59
2023/09/26 01:45:08;;;;;;;5.60;4.50;;;13.70;80.20;;;15.42;56.24;98184.56;5011900;28;20523;-60
2023/09/26 01:47:47;;;;;;;7.35;4.85;;;13.60;80.90;;;15.39;56.17;98184.91;5004414;28;20065;-59
2023/09/26 01:50:17;;;;;;;8.20;4.47;;;13.50;81.60;;;15.39;56.51;98189.44;4989030;28;20050;-59
2023/09/26 01:52:46;;;;;;;6.18;4.47;;;13.50;81.70;;;15.38;56.52;98185.09;5004093;28;20065;-59
2023/09/26 01:55:22;;;;;;;6.18;5.50;;;13.50;81.70;;;15.38;56.45;98190.47;5008599;28;20041;-59
2023/09/26 01:57:52;;;;;;;5.63;4.28;;;13.50;81.10;;;15.36;56.34;98187.97;5007942;28;20057;-59
2023/09/26 02:00:20;;;;;;;6.45;4.97;;;13.40;81.50;;;15.33;56.52;98191.84;5006583;28;20042;-59
2023/09/26 02:02:51;;;;;;;4.97;4.47;;;13.50;81.50;;;15.33;56.80;98196.34;5023078;28;20409;-59
2023/09/26 02:05:21;;;;;;;5.63;4.68;;;13.50;81.50;;;15.30;56.82;98189.50;4992207;28;20048;-59
2023/09/26 02:07:49;;;;;;;5.95;4.57;;;13.50;81.70;;;15.29;56.84;98193.19;5025504;28;20037;-59
2023/09/26 02:10:17;;;;;;;5.65;4.53;;;13.50;81.90;;;15.26;56.94;98192.72;5001101;28;20065;-59
2023/09/26 02:12:50;;;;;;;6.20;3.92;;;13.40;82.00;;;15.26;57.04;98192.72;4992265;28;20052;-59
2023/09/26 02:15:19;;;;;;;6.80;4.82;;;13.50;82.20;;;15.25;56.85;98183.00;4997440;28;20544;-59
2023/09/26 02:17:46;;;;;;;7.97;4.97;;;13.40;81.30;;;15.22;56.75;98176.16;4996563;28;20425;-59
2023/09/26 02:20:17;;;;;;;5.28;4.00;;;13.40;81.10;;;15.20;56.74;98178.19;4992339;28;20421;-59
2023/09/26 02:22:50;;;;;;;5.65;4.53;;;13.40;81.10;;;15.19;56.72;98181.03;5023999;28;20056;-59
2023/09/26 02:25:20;;;;;;;4.85;4.10;;;13.40;81.10;;;15.18;56.61;98182.88;4981090;28;20520;-59
2023/09/26 02:27:49;;;;;;;7.10;4.00;;;13.40;81.20;;;15.16;56.71;98176.88;5001264;28;20046;-59
2023/09/26 02:30:23;;;;;;;5.75;4.32;;;13.30;80.90;;;15.12;56.54;98173.69;5023836;28;20061;-59
2023/09/26 02:32:51;;;;;;;5.38;4.20;;;13.30;80.90;;;15.10;56.55;98178.41;5006337;28;20045;-59
2023/09/26 02:35:19;;;;;;;6.78;4.72;;;13.30;81.40;;;15.08;56.59;98171.53;5004263;28;20041;-59
2023/09/26 02:37:48;;;;;;;6.05;4.43;;;13.20;81.10;;;15.06;56.67;98176.25;5022073;28;20050;-59
2023/09/26 02:40:17;;;;;;;5.18;4.20;;;13.20;81.30;;;15.04;56.69;98170.22;4996459;28;20042;-59
2023/09/26 02:42:45;;;;;;;5.00;3.88;;;13.10;81.60;;;15.01;56.69;98170.59;5004772;28;20041;-59
2023/09/26 02:45:13;;;;;;;5.72;4.45;;;13.10;81.60;;;14.98;56.96;98168.25;5023148;28;20045;-59
2023/09/26 02:47:43;;;;;;;8.70;4.53;;;13.10;82.00;;;14.96;57.17;98163.88;5008113;28;20045;-59
2023/09/26 02:50:12;;;;;;;5.80;4.72;;;13.10;82.10;;;14.94;56.94;98165.91;5004839;28;20038;-59
2023/09/26 02:52:43;;;;;;;7.22;4.03;;;13.10;82.30;;;14.94;57.19;98163.22;5000578;28;20046;-59
2023/09/26 02:55:11;;;;;;;6.07;4.38;;;13.10;82.80;;;14.95;57.13;98164.09;4989796;28;20046;-59
2023/09/26 02:57:39;;;;;;;5.95;4.32;;;13.10;82.80;;;14.96;57.35;98158.53;4991673;28;20049;-59
2023/09/26 03:00:19;;;;;;;4.60;3.97;;;13.10;82.90;;;14.97;57.34;98159.38;5020905;28;20062;-59
2023/09/26 03:02:46;;;;;;;7.00;4.28;;;13.20;82.60;;;14.98;57.12;98153.00;4993398;28;20050;-59
2023/09/26 03:05:16;;;;;;;4.43;4.03;;;13.30;81.90;;;14.98;57.05;98150.31;4995758;28;20050;-59
2023/09/26 03:07:45;;;;;;;6.25;4.00;;;13.20;81.30;;;14.98;57.09;98160.22;4988591;28;20049;-60
2023/09/26 03:10:14;;;;;;;8.70;3.80;;;13.20;81.20;;;14.95;56.91;98150.69;5024753;28;20037;-59
2023/09/26 03:12:46;;;;;;;5.82;4.50;;;13.10;81.50;;;14.94;56.84;98157.88;5006705;28;20048;-60
2023/09/26 03:15:15;;;;;;;5.78;4.25;;;13.10;81.60;;;14.92;56.83;98156.38;4987572;28;20398;-59
2023/09/26 03:17:43;;;;;;;9.00;5.03;;;13.00;81.50;;;14.88;56.95;98153.22;5021403;28;20046;-59
2023/09/26 03:20:15;;;;;;;6.50;3.83;;;13.00;82.10;;;14.85;57.04;98156.28;5011579;28;20408;-59
2023/09/26 03:22:43;;;;;;;5.63;4.47;;;13.00;82.10;;;14.84;57.10;98156.44;5003385;28;20524;-59
2023/09/26 03:25:11;;;;;;;6.88;4.82;;;13.00;82.00;;;14.84;57.16;98159.94;5005098;28;20046;-59
2023/09/26 03:27:39;;;;;;;5.13;4.18;;;13.00;81.80;;;14.84;57.06;98156.44;5007394;28;20041;-60
2023/09/26 03:30:08;;;;;;;6.75;3.95;;;13.10;81.60;;;14.82;57.42;98156.59;5022577;28;20053;-59
2023/09/26 03:32:36;;;;;;;5.93;3.83;;;13.00;81.40;;;14.83;57.30;98152.06;4987380;28;20042;-59
2023/09/26 03:35:05;;;;;;;6.88;4.45;;;13.00;81.70;;;14.80;56.94;98153.28;5021758;28;20044;-60
2023/09/26 03:37:33;;;;;;;5.63;4.78;;;13.00;81.70;;;14.76;57.19;98150.09;4991099;28;20045;-59
2023/09/26 03:40:00;;;;;;;6.28;5.05;;;13.00;81.70;;;14.76;57.02;98144.75;5004751;28;20048;-59
2023/09/26 03:42:28;;;;;;;7.10;4.13;;;12.90;81.80;;;14.74;56.92;98148.63;5018691;28;20413;-59
2023/09/26 03:44:56;;;;;;;6.82;4.45;;;12.80;81.90;;;14.70;57.18;98144.63;5003188;28;20139;-59
2023/09/26 03:47:24;;;;;;;6.75;5.28;;;12.80;82.20;;;14.67;57.46;98147.63;5024116;28;20045;-60
2023/09/26 03:49:53;;;;;;;5.85;5.13;;;12.80;83.50;;;14.65;57.71;98142.44;5024143;28;20041;-60
2023/09/26 03:52:20;;;;;;;7.75;4.38;;;12.80;84.10;;;14.65;57.70;98138.94;4995345;28;20424;-59
2023/09/26 03:54:49;;;;;;;6.88;4.65;;;12.80;83.80;;;14.65;57.69;98141.63;5020588;28;20045;-59
2023/09/26 03:57:16;;;;;;;4.82;4.22;;;12.90;83.50;;;14.65;57.62;98153.16;5011007;28;20105;-60
2023/09/26 03:59:51;;;;;;;5.60;4.55;;;12.90;83.10;;;14.63;57.80;98143.63;5020597;28;20044;-59
2023/09/26 04:02:18;;;;;;;7.50;4.80;;;12.80;83.10;;;14.61;58.18;98149.16;5023537;28;20041;-60
2023/09/26 04:04:46;;;;;;;7.30;4.40;;;12.80;83.00;;;14.56;57.97;98140.81;5023795;28;20408;-59
2023/09/26 04:07:14;;;;;;;4.38;3.88;;;12.90;82.70;;;14.53;58.19;98146.50;5015280;28;20048;-59
2023/09/26 04:09:42;;;;;;;6.82;4.85;;;13.00;82.40;;;14.52;58.35;98147.50;5006446;28;20052;-59
2023/09/26 04:12:10;;;;;;;4.75;4.28;;;13.00;82.10;;;14.53;58.28;98143.81;5004000;28;20285;-59
2023/09/26 04:14:37;;;;;;;8.25;5.85;;;13.00;82.30;;;14.58;58.13;98152.22;5020333;28;20413;-60
2023/09/26 04:17:05;;;;;;;6.53;4.50;;;13.10;82.10;;;14.60;57.95;98150.19;5003682;28;20045;-59
2023/09/26 04:19:32;;;;;;;6.05;4.78;;;13.00;81.80;;;14.59;57.67;98155.72;5023488;28;20420;-59
2023/09/26 04:22:00;;;;;;;5.85;4.50;;;12.90;82.00;;;14.58;57.62;98144.19;5023169;28;20041;-59
2023/09/26 04:24:28;;;;;;;7.10;4.50;;;12.80;82.30;;;14.55;57.82;98141.81;5019911;28;20042;-59
2023/09/26 04:26:56;;;;;;;5.82;5.28;;;12.80;82.50;;;14.54;57.68;98143.66;5019842;28;20105;-59
2023/09/26 04:29:24;;;;;;;5.10;4.60;;;12.70;82.80;;;14.54;57.71;98145.50;5012076;28;20042;-60
2023/09/26 04:31:52;;;;;;;5.10;4.13;;;12.70;82.70;;;14.50;57.50;98142.34;5020099;28;20045;-59
2023/09/26 04:34:21;;;;;;;7.43;5.32;;;12.70;82.90;;;14.48;57.71;98136.31;5022459;28;20524;-60
2023/09/26 04:36:49;;;;;;;5.20;3.85;;;12.60;82.80;;;14.46;57.55;98132.13;5005999;28;20052;-59
2023/09/26 04:39:18;;;;;;;6.57;4.90;;;12.60;82.60;;;14.44;57.74;98128.78;5002608;28;20045;-59
2023/09/26 04:41:45;;;;;;;6.38;4.53;;;12.60;83.30;;;14.43;57.83;98136.00;5019891;28;20049;-59
2023/09/26 04:44:13;;;;;;;5.50;4.35;;;12.50;83.20;;;14.42;57.68;98130.81;5003436;28;20042;-59
2023/09/26 04:46:41;;;;;;;10.43;4.93;;;12.50;83.10;;;14.40;57.50;98132.81;5022781;28;20042;-59
2023/09/26 04:49:08;;;;;;;6.53;4.95;;;12.50;82.80;;;14.38;57.63;98133.00;5021815;28;20053;-59
2023/09/26 04:51:36;;;;;;;4.78;4.10;;;12.50;82.60;;;14.36;57.46;98126.97;5019698;28;20421;-59
2023/09/26 04:54:04;;;;;;;5.90;5.30;;;12.50;82.60;;;14.34;57.64;98129.81;5018804;28;20057;-59
2023/09/26 04:56:32;;;;;;;5.55;4.68;;;12.50;82.80;;;14.31;57.88;98126.69;5023240;28;20484;-59
2023/09/26 04:58:59;;;;;;;6.25;4.50;;;12.50;83.60;;;14.30;58.08;98127.66;5022864;28;20045;-59
2023/09/26 05:01:28;;;;;;;7.18;5.22;;;12.50;83.70;;;14.32;58.12;98129.16;5011556;28;20045;-59
2023/09/26 05:03:56;;;;;;;5.40;4.82;;;12.50;83.80;;;14.31;58.33;98134.72;5019456;28;20042;-59
2023/09/26 05:06:24;;;;;;;6.05;4.75;;;12.60;83.90;;;14.32;58.23;98134.50;5022007;28;20052;-59
2023/09/26 05:08:51;;;;;;;6.50;4.72;;;12.60;84.50;;;14.31;58.18;98135.53;5022838;28;20045;-59
2023/09/26 05:11:19;;;;;;;6.03;4.35;;;12.60;83.60;;;14.31;58.26;98140.91;5020451;28;20045;-59
2023/09/26 05:13:47;;;;;;;6.72;4.80;;;12.50;84.10;;;14.30;58.32;98141.88;5019169;28;20493;-60
2023/09/26 05:16:15;;;;;;;6.93;5.43;;;12.50;83.90;;;14.31;58.25;98140.06;5020658;28;20045;-60
2023/09/26 05:18:42;;;;;;;8.25;5.07;;;12.50;84.10;;;14.33;58.47;98151.44;5022816;28;20045;-60
2023/09/26 05:21:11;;;;;;;5.57;5.00;;;12.50;84.60;;;14.32;58.62;98137.19;5021606;28;20045;-60
2023/09/26 05:23:39;;;;;;;6.00;4.85;;;12.50;84.80;;;14.31;58.63;98140.91;5019032;28;20049;-60
2023/09/26 05:26:11;;;;;;;6.32;5.00;;;12.50;84.90;;;14.29;58.71;98145.59;5019049;28;20053;-60
2023/09/26 05:28:40;;;;;;;5.93;5.40;;;12.50;85.30;;;14.27;58.85;98149.44;5022811;28;20046;-59
2023/09/26 05:31:08;;;;;;;6.32;5.43;;;12.40;85.40;;;14.23;58.75;98142.75;5021813;28;20532;-59
2023/09/26 05:33:36;;;;;;;6.22;5.25;;;12.40;86.10;;;14.21;58.96;98148.31;5019070;28;20045;-59
2023/09/26 05:36:04;;;;;;;8.52;5.97;;;12.30;86.50;;;14.22;58.96;98144.59;5018488;28;20432;-59
2023/09/26 05:38:32;;;;;;;9.23;4.88;;;12.40;86.50;;;14.21;59.23;98147.44;5011468;28;20046;-59
2023/09/26 05:41:00;;;;;;;7.55;4.75;;;12.40;86.90;;;14.20;59.23;98149.28;5019202;28;20054;-61
2023/09/26 05:43:29;;;;;;;8.68;6.03;;;12.40;86.80;;;14.22;59.48;98152.63;5022361;28;20038;-63
2023/09/26 05:45:56;;;;;;;8.13;5.22;;;12.50;86.30;;;14.23;59.40;98158.81;5005427;28;20042;-63
2023/09/26 05:48:24;;;;;;;7.10;4.97;;;12.50;86.30;;;14.21;59.42;98150.97;5003857;28;20041;-62
2023/09/26 05:50:59;;;;;;;9.27;5.20;;;12.50;86.40;;;14.22;59.41;98149.13;5022475;28;20056;-64
2023/09/26 05:53:27;;;;;;;7.20;4.80;;;12.50;86.60;;;14.24;59.40;98153.28;5019507;28;20045;-64
2023/09/26 05:55:55;;;;;;;9.68;6.07;;;12.50;86.40;;;14.28;59.46;98151.94;5018725;28;20078;-63
2023/09/26 05:58:23;;;;;;;6.70;4.65;;;12.60;85.90;;;14.31;59.46;98148.09;5021161;28;20057;-64
2023/09/26 06:00:53;;;;;;;8.43;5.03;;;12.60;86.30;;;14.33;59.61;98154.94;5004864;28;20038;-64
2023/09/26 06:03:21;;;;;;;8.52;5.10;;;12.60;86.10;;;14.37;59.49;98153.59;5020097;28;20050;-63
2023/09/26 06:05:51;;;;;;;9.52;5.40;;;12.60;86.10;;;14.39;59.51;98148.06;5018589;28;20034;-62
2023/09/26 06:08:20;;;;;;;9.70;7.38;;;12.70;86.10;;;14.42;59.56;98160.25;5020547;28;20041;-63
2023/09/26 06:10:54;;;;;;;16.50;9.25;;;12.70;86.00;;;14.40;59.69;98155.06;5022374;28;20390;-63
2023/09/26 06:13:22;;;;;;;11.73;7.55;;;12.70;86.40;;;14.42;59.42;98155.75;5020101;28;20053;-63
2023/09/26 06:15:49;;;;;;;8.43;7.00;;;12.60;86.60;;;14.45;59.53;98151.91;5018587;28;20053;-63
2023/09/26 06:18:17;;;;;;;9.02;5.63;;;12.70;86.70;;;14.50;59.81;98161.09;5019385;28;20516;-63
2023/09/26 06:20:45;;;;;;;12.95;5.22;;;12.80;86.90;;;14.56;59.78;98159.56;5007988;28;20042;-63
2023/09/26 06:23:13;;;;;;;6.72;4.65;;;12.90;86.60;;;14.63;59.80;98157.03;5025104;28;20126;-63
2023/09/26 06:25:41;;;;;;;6.50;4.75;;;13.00;86.00;;;14.69;59.89;98151.81;5022055;28;20057;-63
2023/09/26 06:28:22;;;;;;;6.28;4.22;;;13.10;85.90;;;14.74;59.92;98151.28;5029051;28;20046;-63
2023/09/26 06:30:50;;;;;;;6.15;4.07;;;13.20;85.80;;;14.80;59.78;98153.28;5004925;28;20056;-63
2023/09/26 06:33:18;;;;;;;6.72;5.00;;;13.20;85.30;;;14.88;59.66;98155.91;5005368;28;20050;-63
2023/09/26 06:35:46;;;;;;;5.05;4.25;;;13.30;85.00;;;14.93;59.62;98163.44;4997089;28;20044;-64
2023/09/26 06:38:13;;;;;;;5.20;4.35;;;13.40;84.30;;;14.99;59.63;98162.72;5027537;28;20053;-63
2023/09/26 06:40:41;;;;;;;6.47;4.68;;;13.50;83.80;;;15.03;59.61;98168.56;5008922;28;20038;-63
2023/09/26 06:43:09;;;;;;;5.72;4.78;;;13.60;83.20;;;15.03;59.64;98169.41;5027827;28;20041;-63
2023/09/26 06:45:39;;;;;;;6.35;4.75;;;13.70;82.90;;;15.07;59.37;98168.03;5023895;28;20042;-63
2023/09/26 06:48:06;;;;;;;5.35;4.07;;;13.70;82.60;;;15.13;59.54;98167.31;5000557;28;20042;-61
2023/09/26 06:50:41;;;;;;;6.10;4.38;;;13.80;82.60;;;15.21;59.17;98173.66;5007746;28;20038;-59
2023/09/26 06:53:08;;;;;;;7.82;4.88;;;13.80;82.30;;;15.27;58.96;98173.75;5008905;28;20049;-60
2023/09/26 06:55:39;;;;;;;8.88;5.60;;;13.80;82.40;;;15.32;59.21;98173.25;4995923;28;20046;-60
2023/09/26 06:58:06;;;;;;;7.70;5.45;;;13.90;82.30;;;15.38;59.15;98171.69;5021650;28;20046;-60
2023/09/26 07:00:40;;;;;;;7.53;5.45;;;13.90;82.00;;;15.41;59.03;98165.94;5024564;28;20044;-60
2023/09/26 07:03:07;;;;;;;7.18;4.88;;;14.00;81.90;;;15.46;58.96;98172.44;5007664;28;20497;-60
2023/09/26 07:05:35;;;;;;;7.38;4.43;;;14.00;81.70;;;15.50;59.18;98173.75;5021453;28;20412;-60
2023/09/26 07:08:03;;;;;;;7.18;4.68;;;14.10;82.10;;;15.54;59.09;98177.75;5021335;28;20052;-60
2023/09/26 07:10:37;;;;;;;9.30;5.35;;;14.10;82.40;;;15.58;59.25;98174.72;5023942;28;20060;-60
2023/09/26 07:13:05;;;;;;;10.27;5.38;;;14.20;83.00;;;15.62;59.29;98166.09;5024500;28;20300;-60
2023/09/26 07:15:42;;;;;;;11.20;6.05;;;14.30;82.90;;;15.65;59.33;98175.66;5024490;28;20253;-60
2023/09/26 07:18:11;;;;;;;7.28;5.35;;;14.20;82.90;;;15.69;59.37;98174.28;5007320;28;20049;-60
2023/09/26 07:20:49;;;;;;;8.80;4.72;;;14.30;82.60;;;15.70;59.25;98176.81;5021107;28;20041;-60
2023/09/26 07:23:16;;;;;;;10.75;5.10;;;14.30;82.20;;;15.74;59.22;98178.13;5021567;28;20417;-60
2023/09/26 07:25:44;;;;;;;10.13;5.10;;;14.30;81.90;;;15.77;58.96;98171.56;5024256;28;20041;-61
2023/09/26 07:28:11;;;;;;;6.10;4.43;;;14.40;81.90;;;15.84;59.01;98171.66;5006235;28;20454;-63
2023/09/26 07:30:39;;;;;;;7.32;4.88;;;14.40;81.70;;;15.84;58.89;98164.47;5003384;28;20046;-65
2023/09/26 07:33:07;;;;;;;9.75;5.32;;;14.50;81.70;;;15.89;59.01;98171.94;5020807;28;20072;-65
2023/09/26 07:35:34;;;;;;;8.70;5.28;;;14.50;81.30;;;15.93;58.73;98166.03;5023144;28;20424;-65
2023/09/26 07:38:02;;;;;;;8.30;4.30;;;14.50;81.10;;;15.98;58.81;98170.03;5024230;28;20049;-65
2023/09/26 07:40:30;;;;;;;7.32;4.90;;;14.50;81.10;;;16.01;58.81;98166.97;5022423;28;20052;-65
2023/09/26 07:42:59;;;;;;;9.68;5.28;;;14.60;81.20;;;16.05;58.87;98171.81;5003372;28;20413;-65
2023/09/26 07:45:27;;;;;;;5.65;4.20;;;14.60;81.00;;;16.08;58.67;98171.44;5019744;28;20046;-65
2023/09/26 07:47:54;;;;;;;6.63;5.45;;;14.70;80.80;;;16.13;58.77;98170.91;5024289;28;20531;-65
2023/09/26 07:50:22;;;;;;;8.10;4.82;;;14.70;80.60;;;16.17;58.68;98171.34;5013613;28;20057;-65
2023/09/26 07:52:50;;;;;;;5.85;5.22;;;14.80;80.70;;;16.20;58.80;98174.50;5020652;28;20045;-65
2023/09/26 07:55:17;;;;;;;7.15;4.35;;;14.80;80.40;;;16.25;58.66;98173.97;5020310;28;20421;-65
2023/09/26 07:57:45;;;;;;;5.40;4.60;;;14.90;80.70;;;16.29;58.95;98173.38;5024059;28;20037;-65
2023/09/26 08:00:13;;;;;;;4.82;4.30;;;15.00;80.50;;;16.36;58.51;98173.47;5024041;28;20143;-65
2023/09/26 08:02:41;;;;;;;18.25;6.47;;;15.00;80.00;;;16.39;58.38;98173.13;5020716;28;20064;-65
2023/09/26 08:05:09;;;;;;;4.93;4.40;;;15.00;79.90;;;16.43;58.79;98166.34;5008714;28;20056;-65
2023/09/26 08:07:38;;;;;;;6.53;5.03;;;15.10;80.30;;;16.48;58.84;98171.19;5020937;28;20570;-65
2023/09/26 08:10:06;;;;;;;13.32;5.93;;;15.20;80.40;;;16.52;58.76;98173.28;5020488;28;20041;-65
2023/09/26 08:12:36;;;;;;;7.93;4.97;;;15.30;80.60;;;16.58;58.93;98168.22;5004784;28;20060;-65
2023/09/26 08:15:04;;;;;;;8.88;4.93;;;15.30;80.50;;;16.63;58.57;98171.97;5005928;28;20549;-65
2023/09/26 08:17:32;;;;;;;7.88;5.18;;;15.40;80.10;;;16.67;58.77;98175.97;5021787;28;20055;-65
2023/09/26 08:19:59;;;;;;;7.88;5.10;;;15.40;80.10;;;16.72;58.60;98178.09;5020183;28;20049;-65
2023/09/26 08:22:27;;;;;;;8.20;4.70;;;15.50;80.10;;;16.76;58.75;98174.00;5020185;28;20038;-65
2023/09/26 08:24:55;;;;;;;5.20;4.40;;;15.50;80.00;;;16.80;58.92;98171.78;5019392;28;20413;-65
2023/09/26 08:27:24;;;;;;;7.70;6.65;;;15.50;80.20;;;16.88;58.83;98174.38;5020412;28;20046;-65
2023/09/26 08:29:52;;;;;;;10.90;6.47;;;15.60;80.20;;;16.92;58.75;98178.38;5013739;28;20112;-65
2023/09/26 08:32:20;;;;;;;7.60;4.97;;;15.70;80.30;;;16.97;58.79;98181.34;5023268;28;20056;-65
2023/09/26 08:34:47;;;;;;;6.53;5.50;;;15.70;80.00;;;17.01;58.94;98177.25;5013091;28;20056;-65
2023/09/26 08:37:16;;;;;;;6.38;5.53;;;15.80;80.20;;;17.06;59.00;98171.28;5023070;28;20103;-65
2023/09/26 08:39:44;;;;;;;8.05;5.95;;;15.80;80.10;;;17.11;58.96;98169.69;5002736;28;20052;-65
2023/09/26 08:42:27;;;;;;;8.30;5.28;;;15.90;80.80;;;17.18;59.01;98174.34;5019245;28;20046;-66
2023/09/26 08:44:55;;;;;;;8.15;6.35;;;15.90;80.60;;;17.23;59.17;98170.03;4994792;28;20049;-65
2023/09/26 08:47:27;;;;;;;6.55;5.35;;;16.00;80.20;;;17.28;59.00;98167.59;5002166;28;20046;-65
2023/09/26 08:49:56;;;;;;;7.03;6.32;;;16.10;80.30;;;17.34;58.93;98170.56;5021619;28;20497;-65
2023/09/26 08:52:24;;;;;;;8.82;6.43;;;16.10;80.30;;;17.38;58.88;98169.16;5005678;28;20049;-65
2023/09/26 08:54:52;;;;;;;7.32;5.10;;;16.20;80.20;;;17.43;58.98;98166.72;5002410;28;20045;-65
2023/09/26 08:57:22;;;;;;;7.90;6.32;;;16.20;80.00;;;17.48;58.86;98165.09;5002393;28;20046;-65
2023/09/26 08:59:51;;;;;;;6.22;5.63;;;16.30;80.10;;;17.51;58.73;98167.41;5002201;28;20053;-65
2023/09/26 09:02:18;;;;;;;10.75;6.22;;;16.30;80.00;;;17.56;58.95;98169.50;5002368;28;20050;-65
2023/09/26 09:04:46;;;;;;;7.00;6.10;;;16.40;79.90;;;17.61;58.71;98160.88;5022604;28;20397;-65
2023/09/26 09:07:14;;;;;;;11.73;6.05;;;16.40;79.70;;;17.68;58.82;98161.75;5022718;28;20056;-65
2023/09/26 09:10:04;;;;;;;6.82;5.88;;;16.50;79.60;;;17.72;58.50;98160.34;5010531;28;20053;-65
2023/09/26 09:12:31;;;;;;;8.02;6.80;;;16.60;79.20;;;17.82;58.38;98170.78;5003020;28;20576;-65
2023/09/26 09:14:59;;;;;;;14.38;6.63;;;16.60;78.60;;;17.84;58.22;98160.69;5022456;28;20041;-65
2023/09/26 09:17:40;;;;;;;6.25;5.60;;;16.60;78.40;;;17.91;58.29;98158.84;5022106;28;20052;-65
2023/09/26 09:20:09;;;;;;;6.18;5.45;;;16.70;79.10;;;17.97;58.12;98152.72;5019486;28;20045;-65
2023/09/26 09:22:37;;;;;;;7.68;5.68;;;16.80;78.30;;;18.04;57.91;98156.28;5001859;28;20048;-65
2023/09/26 09:25:05;;;;;;;7.30;5.95;;;16.80;77.90;;;18.10;57.75;98152.78;5006795;28;20056;-65
2023/09/26 09:27:38;;;;;;;9.15;6.93;;;16.90;77.80;;;18.15;57.72;98156.78;5021742;28;20053;-65
2023/09/26 09:30:15;;;;;;;9.13;6.60;;;16.90;77.90;;;18.21;57.79;98155.97;5002579;28;20052;-65
2023/09/26 09:32:43;;;;;;;9.98;6.30;;;17.00;77.80;;;18.25;57.71;98146.47;5021041;28;20046;-65
2023/09/26 09:35:14;;;;;;;8.27;6.10;;;17.10;77.80;;;18.32;57.83;98149.19;5004697;28;20527;-65
2023/09/26 09:37:46;;;;;;;9.15;6.82;;;17.10;77.90;;;18.38;57.71;98151.94;5020420;28;20498;-65
2023/09/26 09:40:20;;;;;;;7.95;5.88;;;17.20;77.50;;;18.44;57.49;98153.00;5001971;28;20505;-65
2023/09/26 09:42:49;;;;;;;;;;;17.30;76.80;;;18.47;57.49;98148.03;5017984;28;20056;-65
2023/09/26 09:45:17;;;;;;;9.25;6.20;;;17.30;76.10;;;18.56;57.06;98147.88;5004720;28;19928;-65
2023/09/26 09:47:47;;;;;;;12.18;6.25;;;17.30;76.90;;;18.60;57.37;98135.66;5002249;28;20053;-65
2023/09/26 09:50:16;;;;;;;9.80;6.45;;;17.40;76.90;;;18.65;57.02;98142.13;5001864;28;20050;-66
2023/09/26 09:52:47;;;;;;;8.90;6.28;;;17.40;76.30;;;18.69;56.80;98132.59;5003757;28;20054;-65
2023/09/26 09:55:23;;;;;;;8.05;6.03;;;17.50;76.00;;;18.74;56.78;98134.66;5008809;28;20056;-66
2023/09/26 09:57:52;;;;;;;9.85;6.93;;;17.50;75.60;;;18.78;56.79;98127.84;5005811;28;20033;-66
2023/09/26 10:00:24;;;;;;;9.07;7.70;;;17.60;75.40;;;18.81;56.54;98140.13;5005444;28;20042;-66
2023/09/26 10:02:52;;;;;;;8.77;5.57;;;17.60;75.30;;;18.86;56.31;98129.56;5000584;28;20052;-64
2023/09/26 10:05:21;;;;;;;9.27;5.75;;;17.60;75.00;;;18.90;56.44;98133.50;5008327;28;20521;-63
2023/09/26 10:07:49;;;;;;;6.65;5.72;;;17.70;75.00;;;18.93;56.40;98125.03;5005807;28;20049;-64
2023/09/26 10:10:18;;;;;;;7.93;6.07;;;17.70;75.70;;;18.98;56.25;98127.09;5022623;28;20520;-63
2023/09/26 10:12:46;;;;;;;8.30;5.97;;;17.70;74.70;;;19.03;56.16;98124.63;5007195;28;20060;-63
2023/09/26 10:16:07;;;;;;;6.80;5.72;;;17.80;74.50;;;19.08;56.23;98128.38;5024839;28;20064;-65
2023/09/26 10:18:40;;;;;;;6.68;5.50;;;17.90;73.70;;;19.18;55.74;98122.59;5023080;28;20046;-68
2023/09/26 10:21:27;;;;;;;7.32;5.95;;;18.00;73.80;;;19.23;55.75;98121.97;5025942;28;20046;-67
2023/09/26 10:24:21;;;;;;;6.30;5.68;;;18.00;73.40;;;19.28;55.69;98130.28;5022370;28;20050;-67
2023/09/26 10:26:54;;;;;;;7.05;5.90;;;18.10;73.40;;;19.35;55.37;98125.75;5006997;28;20034;-68
2023/09/26 10:29:27;;;;;;;7.97;6.00;;;18.20;73.00;;;19.39;55.27;98118.06;5009682;28;20041;-68